sensor_id;sensor_type;location;lat;lon;timestamp;P1;durP1;ratioP1;P2;durP2;ratioP2
20445;SDS011;10382;49.140;9.234;2023-08-20T00:00:53;11.43;;;8.80;;
20445;SDS011;10382;49.140;9.234;2023-08-20T00:03:21;10.67;;;8.70;;
20445;SDS011;10382;49.140;9.234;2023-08-20T00:05:48;19.53;;;10.17;;
20445;SDS011;10382;49.140;9.234;2023-08-20T00:08:15;13.97;;;9.53;;
20445;SDS011;10382;49.140;9.234;2023-08-20T00:10:43;22.20;;;10.70;;
20445;SDS011;10382;49.140;9.234;2023-08-20T00:13:10;13.70;;;8.40;;
20445;SDS011;10382;49.140;9.234;2023-08-20T00:15:37;15.40;;;9.53;;
20445;SDS011;10382;49.140;9.234;2023-08-20T00:18:05;11.40;;;8.03;;
20445;SDS011;10382;49.140;9.234;2023-08-20T00:20:32;13.43;;;9.27;;
20445;SDS011;10382;49.140;9.234;2023-08-20T00:23:00;15.53;;;11.30;;
20445;SDS011;10382;49.140;9.234;2023-08-20T00:25:27;16.20;;;10.70;;
20445;SDS011;10382;49.140;9.234;2023-08-20T00:27:56;12.53;;;10.57;;
20445;SDS011;10382;49.140;9.234;2023-08-20T00:30:23;11.97;;;10.80;;
20445;SDS011;10382;49.140;9.234;2023-08-20T00:32:49;13.13;;;9.80;;
20445;SDS011;10382;49.140;9.234;2023-08-20T00:35:16;12.00;;;9.80;;
20445;SDS011;10382;49.140;9.234;2023-08-20T00:37:43;11.07;;;9.10;;
20445;SDS011;10382;49.140;9.234;2023-08-20T00:40:11;12.13;;;9.13;;
20445;SDS011;10382;49.140;9.234;2023-08-20T00:42:38;13.93;;;9.53;;
20445;SDS011;10382;49.140;9.234;2023-08-20T00:45:06;18.87;;;11.50;;
20445;SDS011;10382;49.140;9.234;2023-08-20T00:47:34;13.70;;;9.50;;
20445;SDS011;10382;49.140;9.234;2023-08-20T00:50:01;12.07;;;8.93;;
20445;SDS011;10382;49.140;9.234;2023-08-20T00:52:31;10.20;;;9.20;;
20445;SDS011;10382;49.140;9.234;2023-08-20T00:54:58;15.63;;;9.53;;
20445;SDS011;10382;49.140;9.234;2023-08-20T00:57:26;13.23;;;9.00;;
20445;SDS011;10382;49.140;9.234;2023-08-20T00:59:53;11.30;;;9.83;;
20445;SDS011;10382;49.140;9.234;2023-08-20T01:02:23;19.27;;;9.10;;
20445;SDS011;10382;49.140;9.234;2023-08-20T01:04:50;22.63;;;10.27;;
20445;SDS011;10382;49.140;9.234;2023-08-20T01:07:19;18.50;;;10.73;;
20445;SDS011;10382;49.140;9.234;2023-08-20T01:09:54;11.10;;;9.83;;
20445;SDS011;10382;49.140;9.234;2023-08-20T01:12:35;13.10;;;10.03;;
20445;SDS011;10382;49.140;9.234;2023-08-20T01:15:05;16.73;;;10.23;;
20445;SDS011;10382;49.140;9.234;2023-08-20T01:17:35;12.97;;;10.47;;
20445;SDS011;10382;49.140;9.234;2023-08-20T01:20:02;14.57;;;10.87;;
20445;SDS011;10382;49.140;9.234;2023-08-20T01:22:35;10.43;;;8.87;;
20445;SDS011;10382;49.140;9.234;2023-08-20T01:25:28;16.10;;;10.60;;
20445;SDS011;10382;49.140;9.234;2023-08-20T01:28:03;16.47;;;10.00;;
20445;SDS011;10382;49.140;9.234;2023-08-20T01:30:50;12.07;;;9.33;;
20445;SDS011;10382;49.140;9.234;2023-08-20T01:33:18;20.20;;;10.73;;
20445;SDS011;10382;49.140;9.234;2023-08-20T01:35:45;11.20;;;9.60;;
20445;SDS011;10382;49.140;9.234;2023-08-20T01:38:12;9.53;;;8.40;;
20445;SDS011;10382;49.140;9.234;2023-08-20T01:40:39;14.17;;;9.70;;
20445;SDS011;10382;49.140;9.234;2023-08-20T01:43:06;12.33;;;10.20;;
20445;SDS011;10382;49.140;9.234;2023-08-20T01:45:34;11.10;;;8.70;;
20445;SDS011;10382;49.140;9.234;2023-08-20T01:48:01;16.53;;;10.07;;
20445;SDS011;10382;49.140;9.234;2023-08-20T01:50:28;15.80;;;9.40;;
20445;SDS011;10382;49.140;9.234;2023-08-20T01:52:55;15.03;;;11.10;;
20445;SDS011;10382;49.140;9.234;2023-08-20T01:55:22;11.20;;;8.40;;
20445;SDS011;10382;49.140;9.234;2023-08-20T01:57:49;12.13;;;8.90;;
20445;SDS011;10382;49.140;9.234;2023-08-20T02:00:16;14.30;;;8.93;;
20445;SDS011;10382;49.140;9.234;2023-08-20T02:02:44;11.87;;;10.20;;
20445;SDS011;10382;49.140;9.234;2023-08-20T02:05:11;14.63;;;9.60;;
20445;SDS011;10382;49.140;9.234;2023-08-20T02:07:38;15.53;;;11.40;;
20445;SDS011;10382;49.140;9.234;2023-08-20T02:10:05;18.67;;;10.90;;
20445;SDS011;10382;49.140;9.234;2023-08-20T02:12:33;11.53;;;9.23;;
20445;SDS011;10382;49.140;9.234;2023-08-20T02:15:00;18.43;;;9.70;;
20445;SDS011;10382;49.140;9.234;2023-08-20T02:17:28;14.70;;;9.80;;
20445;SDS011;10382;49.140;9.234;2023-08-20T02:19:56;12.43;;;10.07;;
20445;SDS011;10382;49.140;9.234;2023-08-20T02:22:23;13.17;;;9.60;;
20445;SDS011;10382;49.140;9.234;2023-08-20T02:24:50;19.53;;;10.50;;
20445;SDS011;10382;49.140;9.234;2023-08-20T02:27:17;34.97;;;9.90;;
20445;SDS011;10382;49.140;9.234;2023-08-20T02:29:44;13.00;;;9.10;;
20445;SDS011;10382;49.140;9.234;2023-08-20T02:32:12;14.63;;;10.87;;
20445;SDS011;10382;49.140;9.234;2023-08-20T02:34:39;21.63;;;11.10;;
20445;SDS011;10382;49.140;9.234;2023-08-20T02:37:07;16.23;;;10.80;;
20445;SDS011;10382;49.140;9.234;2023-08-20T02:39:34;16.00;;;10.37;;
20445;SDS011;10382;49.140;9.234;2023-08-20T02:42:01;19.23;;;11.83;;
20445;SDS011;10382;49.140;9.234;2023-08-20T02:44:28;16.40;;;11.00;;
20445;SDS011;10382;49.140;9.234;2023-08-20T02:46:55;12.33;;;11.03;;
20445;SDS011;10382;49.140;9.234;2023-08-20T02:49:22;17.97;;;10.20;;
20445;SDS011;10382;49.140;9.234;2023-08-20T02:51:49;13.43;;;10.40;;
20445;SDS011;10382;49.140;9.234;2023-08-20T02:54:17;13.77;;;10.80;;
20445;SDS011;10382;49.140;9.234;2023-08-20T02:56:44;14.53;;;10.40;;
20445;SDS011;10382;49.140;9.234;2023-08-20T02:59:10;13.57;;;12.03;;
20445;SDS011;10382;49.140;9.234;2023-08-20T03:01:37;15.30;;;11.13;;
20445;SDS011;10382;49.140;9.234;2023-08-20T03:04:05;15.90;;;10.50;;
20445;SDS011;10382;49.140;9.234;2023-08-20T03:06:32;19.63;;;11.17;;
20445;SDS011;10382;49.140;9.234;2023-08-20T03:08:58;22.03;;;10.80;;
20445;SDS011;10382;49.140;9.234;2023-08-20T03:11:27;28.23;;;10.13;;
20445;SDS011;10382;49.140;9.234;2023-08-20T03:13:53;16.30;;;10.80;;
20445;SDS011;10382;49.140;9.234;2023-08-20T03:16:20;18.37;;;10.60;;
20445;SDS011;10382;49.140;9.234;2023-08-20T03:18:47;17.50;;;10.10;;
20445;SDS011;10382;49.140;9.234;2023-08-20T03:21:14;10.00;;;9.00;;
20445;SDS011;10382;49.140;9.234;2023-08-20T03:23:41;14.17;;;12.20;;
20445;SDS011;10382;49.140;9.234;2023-08-20T03:26:08;13.30;;;9.00;;
20445;SDS011;10382;49.140;9.234;2023-08-20T03:28:36;14.30;;;10.90;;
20445;SDS011;10382;49.140;9.234;2023-08-20T03:31:03;17.87;;;10.97;;
20445;SDS011;10382;49.140;9.234;2023-08-20T03:33:30;14.80;;;12.07;;
20445;SDS011;10382;49.140;9.234;2023-08-20T03:35:56;17.90;;;13.23;;
20445;SDS011;10382;49.140;9.234;2023-08-20T03:38:23;13.00;;;10.10;;
20445;SDS011;10382;49.140;9.234;2023-08-20T03:40:50;18.17;;;12.90;;
20445;SDS011;10382;49.140;9.234;2023-08-20T03:43:17;12.67;;;10.03;;
20445;SDS011;10382;49.140;9.234;2023-08-20T03:45:49;18.30;;;11.10;;
20445;SDS011;10382;49.140;9.234;2023-08-20T03:48:16;18.80;;;12.10;;
20445;SDS011;10382;49.140;9.234;2023-08-20T03:50:43;21.47;;;10.40;;
20445;SDS011;10382;49.140;9.234;2023-08-20T03:53:10;14.50;;;10.87;;
20445;SDS011;10382;49.140;9.234;2023-08-20T03:55:37;11.80;;;9.57;;
20445;SDS011;10382;49.140;9.234;2023-08-20T03:58:04;15.87;;;10.60;;
20445;SDS011;10382;49.140;9.234;2023-08-20T04:00:31;14.57;;;11.50;;
20445;SDS011;10382;49.140;9.234;2023-08-20T04:02:59;14.67;;;10.67;;
20445;SDS011;10382;49.140;9.234;2023-08-20T04:05:26;11.80;;;10.60;;
20445;SDS011;10382;49.140;9.234;2023-08-20T04:07:52;13.90;;;11.30;;
20445;SDS011;10382;49.140;9.234;2023-08-20T04:10:19;15.03;;;11.07;;
20445;SDS011;10382;49.140;9.234;2023-08-20T04:12:46;21.53;;;11.87;;
20445;SDS011;10382;49.140;9.234;2023-08-20T04:15:13;12.43;;;10.50;;
20445;SDS011;10382;49.140;9.234;2023-08-20T04:17:40;11.73;;;10.53;;
20445;SDS011;10382;49.140;9.234;2023-08-20T04:20:08;17.87;;;11.77;;
20445;SDS011;10382;49.140;9.234;2023-08-20T04:22:36;11.87;;;10.77;;
20445;SDS011;10382;49.140;9.234;2023-08-20T04:25:04;26.77;;;9.67;;
20445;SDS011;10382;49.140;9.234;2023-08-20T04:27:31;10.63;;;9.67;;
20445;SDS011;10382;49.140;9.234;2023-08-20T04:29:58;17.13;;;11.00;;
20445;SDS011;10382;49.140;9.234;2023-08-20T04:32:25;13.20;;;9.97;;
20445;SDS011;10382;49.140;9.234;2023-08-20T04:34:52;13.83;;;10.60;;
20445;SDS011;10382;49.140;9.234;2023-08-20T04:37:20;11.10;;;9.97;;
20445;SDS011;10382;49.140;9.234;2023-08-20T04:39:47;16.00;;;10.17;;
20445;SDS011;10382;49.140;9.234;2023-08-20T04:42:14;11.10;;;10.03;;
20445;SDS011;10382;49.140;9.234;2023-08-20T04:44:41;11.70;;;9.90;;
20445;SDS011;10382;49.140;9.234;2023-08-20T04:47:10;17.70;;;11.43;;
20445;SDS011;10382;49.140;9.234;2023-08-20T04:49:37;19.77;;;10.67;;
20445;SDS011;10382;49.140;9.234;2023-08-20T04:52:04;13.43;;;10.03;;
20445;SDS011;10382;49.140;9.234;2023-08-20T04:54:32;13.03;;;11.40;;
20445;SDS011;10382;49.140;9.234;2023-08-20T04:56:59;13.57;;;10.83;;
20445;SDS011;10382;49.140;9.234;2023-08-20T04:59:26;15.57;;;10.47;;
20445;SDS011;10382;49.140;9.234;2023-08-20T05:01:53;11.83;;;10.30;;
20445;SDS011;10382;49.140;9.234;2023-08-20T05:04:20;16.60;;;12.00;;
20445;SDS011;10382;49.140;9.234;2023-08-20T05:06:47;16.27;;;10.60;;
20445;SDS011;10382;49.140;9.234;2023-08-20T05:09:14;11.57;;;10.20;;
20445;SDS011;10382;49.140;9.234;2023-08-20T05:11:43;14.47;;;10.43;;
20445;SDS011;10382;49.140;9.234;2023-08-20T05:14:10;15.93;;;11.03;;
20445;SDS011;10382;49.140;9.234;2023-08-20T05:16:37;11.30;;;9.93;;
20445;SDS011;10382;49.140;9.234;2023-08-20T05:19:03;13.63;;;10.50;;
20445;SDS011;10382;49.140;9.234;2023-08-20T05:21:30;12.30;;;10.53;;
20445;SDS011;10382;49.140;9.234;2023-08-20T05:23:57;15.10;;;12.00;;
20445;SDS011;10382;49.140;9.234;2023-08-20T05:26:24;20.40;;;11.77;;
20445;SDS011;10382;49.140;9.234;2023-08-20T05:28:52;20.60;;;13.17;;
20445;SDS011;10382;49.140;9.234;2023-08-20T05:31:19;17.00;;;12.70;;
20445;SDS011;10382;49.140;9.234;2023-08-20T05:33:46;22.70;;;12.90;;
20445;SDS011;10382;49.140;9.234;2023-08-20T05:36:13;15.47;;;13.80;;
20445;SDS011;10382;49.140;9.234;2023-08-20T05:38:40;14.23;;;12.70;;
20445;SDS011;10382;49.140;9.234;2023-08-20T05:41:08;16.93;;;15.03;;
20445;SDS011;10382;49.140;9.234;2023-08-20T05:43:34;18.93;;;12.20;;
20445;SDS011;10382;49.140;9.234;2023-08-20T05:46:03;16.27;;;11.87;;
20445;SDS011;10382;49.140;9.234;2023-08-20T05:48:30;13.23;;;11.93;;
20445;SDS011;10382;49.140;9.234;2023-08-20T05:50:57;18.80;;;13.07;;
20445;SDS011;10382;49.140;9.234;2023-08-20T05:53:24;18.73;;;11.80;;
20445;SDS011;10382;49.140;9.234;2023-08-20T05:55:51;15.90;;;12.63;;
20445;SDS011;10382;49.140;9.234;2023-08-20T05:58:18;18.50;;;11.73;;
20445;SDS011;10382;49.140;9.234;2023-08-20T06:00:44;17.87;;;11.80;;
20445;SDS011;10382;49.140;9.234;2023-08-20T06:03:13;16.23;;;11.43;;
20445;SDS011;10382;49.140;9.234;2023-08-20T06:05:40;14.40;;;11.60;;
20445;SDS011;10382;49.140;9.234;2023-08-20T06:08:06;18.20;;;12.40;;
20445;SDS011;10382;49.140;9.234;2023-08-20T06:10:33;12.30;;;10.70;;
20445;SDS011;10382;49.140;9.234;2023-08-20T06:13:00;12.87;;;11.53;;
20445;SDS011;10382;49.140;9.234;2023-08-20T06:15:27;16.10;;;11.50;;
20445;SDS011;10382;49.140;9.234;2023-08-20T06:17:54;18.83;;;12.60;;
20445;SDS011;10382;49.140;9.234;2023-08-20T06:20:22;13.23;;;10.33;;
20445;SDS011;10382;49.140;9.234;2023-08-20T06:22:49;19.70;;;15.07;;
20445;SDS011;10382;49.140;9.234;2023-08-20T06:25:16;15.33;;;11.30;;
20445;SDS011;10382;49.140;9.234;2023-08-20T06:27:43;15.97;;;10.37;;
20445;SDS011;10382;49.140;9.234;2023-08-20T06:30:10;15.70;;;12.50;;
20445;SDS011;10382;49.140;9.234;2023-08-20T06:32:37;14.70;;;10.37;;
20445;SDS011;10382;49.140;9.234;2023-08-20T06:35:04;13.00;;;11.70;;
20445;SDS011;10382;49.140;9.234;2023-08-20T06:37:34;15.53;;;12.00;;
20445;SDS011;10382;49.140;9.234;2023-08-20T06:40:01;17.60;;;12.50;;
20445;SDS011;10382;49.140;9.234;2023-08-20T06:42:28;12.97;;;10.73;;
20445;SDS011;10382;49.140;9.234;2023-08-20T06:44:55;14.87;;;11.40;;
20445;SDS011;10382;49.140;9.234;2023-08-20T06:47:22;14.80;;;11.80;;
20445;SDS011;10382;49.140;9.234;2023-08-20T06:49:49;17.23;;;11.70;;
20445;SDS011;10382;49.140;9.234;2023-08-20T06:52:16;15.53;;;10.33;;
20445;SDS011;10382;49.140;9.234;2023-08-20T06:54:45;15.67;;;12.33;;
20445;SDS011;10382;49.140;9.234;2023-08-20T06:57:12;12.73;;;8.90;;
20445;SDS011;10382;49.140;9.234;2023-08-20T06:59:38;13.63;;;11.63;;
20445;SDS011;10382;49.140;9.234;2023-08-20T07:02:07;11.80;;;10.60;;
20445;SDS011;10382;49.140;9.234;2023-08-20T07:04:35;14.50;;;12.27;;
20445;SDS011;10382;49.140;9.234;2023-08-20T07:07:01;11.70;;;10.50;;
20445;SDS011;10382;49.140;9.234;2023-08-20T07:09:29;11.90;;;10.70;;
20445;SDS011;10382;49.140;9.234;2023-08-20T07:11:58;13.27;;;11.47;;
20445;SDS011;10382;49.140;9.234;2023-08-20T07:14:25;11.83;;;10.70;;
20445;SDS011;10382;49.140;9.234;2023-08-20T07:16:51;13.47;;;10.60;;
20445;SDS011;10382;49.140;9.234;2023-08-20T07:19:18;15.30;;;10.00;;
20445;SDS011;10382;49.140;9.234;2023-08-20T07:21:45;12.70;;;11.37;;
20445;SDS011;10382;49.140;9.234;2023-08-20T07:24:12;12.80;;;8.53;;
20445;SDS011;10382;49.140;9.234;2023-08-20T07:26:39;12.87;;;9.73;;
20445;SDS011;10382;49.140;9.234;2023-08-20T07:29:07;9.23;;;8.20;;
20445;SDS011;10382;49.140;9.234;2023-08-20T07:31:33;9.97;;;8.93;;
20445;SDS011;10382;49.140;9.234;2023-08-20T07:34:00;9.67;;;8.53;;
20445;SDS011;10382;49.140;9.234;2023-08-20T07:36:29;10.17;;;9.23;;
20445;SDS011;10382;49.140;9.234;2023-08-20T07:38:56;8.93;;;8.03;;
20445;SDS011;10382;49.140;9.234;2023-08-20T07:41:23;10.93;;;8.30;;
20445;SDS011;10382;49.140;9.234;2023-08-20T07:43:50;12.20;;;9.30;;
20445;SDS011;10382;49.140;9.234;2023-08-20T07:46:19;10.40;;;7.50;;
20445;SDS011;10382;49.140;9.234;2023-08-20T07:48:46;9.93;;;8.80;;
20445;SDS011;10382;49.140;9.234;2023-08-20T07:51:13;9.30;;;8.40;;
20445;SDS011;10382;49.140;9.234;2023-08-20T07:53:39;17.27;;;10.10;;
20445;SDS011;10382;49.140;9.234;2023-08-20T07:56:06;10.87;;;8.87;;
20445;SDS011;10382;49.140;9.234;2023-08-20T07:58:33;10.10;;;9.00;;
20445;SDS011;10382;49.140;9.234;2023-08-20T08:01:00;11.30;;;8.70;;
20445;SDS011;10382;49.140;9.234;2023-08-20T08:03:29;15.10;;;10.40;;
20445;SDS011;10382;49.140;9.234;2023-08-20T08:05:56;11.63;;;10.00;;
20445;SDS011;10382;49.140;9.234;2023-08-20T08:08:23;9.30;;;8.07;;
20445;SDS011;10382;49.140;9.234;2023-08-20T08:10:50;15.90;;;10.87;;
20445;SDS011;10382;49.140;9.234;2023-08-20T08:13:18;10.90;;;9.57;;
20445;SDS011;10382;49.140;9.234;2023-08-20T08:15:46;17.80;;;10.10;;
20445;SDS011;10382;49.140;9.234;2023-08-20T08:18:13;15.80;;;10.40;;
20445;SDS011;10382;49.140;9.234;2023-08-20T08:20:42;15.03;;;9.00;;
20445;SDS011;10382;49.140;9.234;2023-08-20T08:23:08;11.00;;;9.20;;
20445;SDS011;10382;49.140;9.234;2023-08-20T08:25:35;17.77;;;9.87;;
20445;SDS011;10382;49.140;9.234;2023-08-20T08:28:03;13.50;;;9.83;;
20445;SDS011;10382;49.140;9.234;2023-08-20T08:30:30;8.70;;;7.90;;
20445;SDS011;10382;49.140;9.234;2023-08-20T08:32:57;18.97;;;10.10;;
20445;SDS011;10382;49.140;9.234;2023-08-20T08:35:24;16.73;;;10.50;;
20445;SDS011;10382;49.140;9.234;2023-08-20T08:37:52;15.70;;;9.23;;
20445;SDS011;10382;49.140;9.234;2023-08-20T08:40:19;11.40;;;8.17;;
20445;SDS011;10382;49.140;9.234;2023-08-20T08:42:47;14.10;;;9.13;;
20445;SDS011;10382;49.140;9.234;2023-08-20T08:45:16;15.60;;;9.27;;
20445;SDS011;10382;49.140;9.234;2023-08-20T08:47:45;20.13;;;10.73;;
20445;SDS011;10382;49.140;9.234;2023-08-20T08:50:12;18.70;;;10.60;;
20445;SDS011;10382;49.140;9.234;2023-08-20T08:52:39;10.20;;;8.83;;
20445;SDS011;10382;49.140;9.234;2023-08-20T08:55:09;9.80;;;8.80;;
20445;SDS011;10382;49.140;9.234;2023-08-20T08:57:37;11.63;;;9.40;;
20445;SDS011;10382;49.140;9.234;2023-08-20T09:00:04;8.87;;;7.97;;
20445;SDS011;10382;49.140;9.234;2023-08-20T09:02:32;9.10;;;8.13;;
20445;SDS011;10382;49.140;9.234;2023-08-20T09:04:59;11.43;;;7.70;;
20445;SDS011;10382;49.140;9.234;2023-08-20T09:07:26;14.53;;;9.53;;
20445;SDS011;10382;49.140;9.234;2023-08-20T09:09:57;13.23;;;7.87;;
20445;SDS011;10382;49.140;9.234;2023-08-20T09:12:27;10.60;;;8.23;;
20445;SDS011;10382;49.140;9.234;2023-08-20T09:14:54;10.07;;;7.07;;
20445;SDS011;10382;49.140;9.234;2023-08-20T09:17:25;8.00;;;6.90;;
20445;SDS011;10382;49.140;9.234;2023-08-20T09:19:53;11.10;;;7.80;;
20445;SDS011;10382;49.140;9.234;2023-08-20T09:22:22;14.27;;;7.00;;
20445;SDS011;10382;49.140;9.234;2023-08-20T09:24:52;11.47;;;6.77;;
20445;SDS011;10382;49.140;9.234;2023-08-20T09:27:19;7.93;;;7.00;;
20445;SDS011;10382;49.140;9.234;2023-08-20T09:29:49;10.93;;;7.70;;
20445;SDS011;10382;49.140;9.234;2023-08-20T09:32:17;8.93;;;7.10;;
20445;SDS011;10382;49.140;9.234;2023-08-20T09:34:45;7.43;;;6.57;;
20445;SDS011;10382;49.140;9.234;2023-08-20T09:37:13;12.90;;;7.27;;
20445;SDS011;10382;49.140;9.234;2023-08-20T09:39:41;8.40;;;6.63;;
20445;SDS011;10382;49.140;9.234;2023-08-20T09:42:09;7.33;;;6.57;;
20445;SDS011;10382;49.140;9.234;2023-08-20T09:44:37;7.53;;;6.63;;
20445;SDS011;10382;49.140;9.234;2023-08-20T09:47:07;6.40;;;5.80;;
20445;SDS011;10382;49.140;9.234;2023-08-20T09:49:38;11.27;;;7.03;;
20445;SDS011;10382;49.140;9.234;2023-08-20T09:52:07;9.30;;;6.70;;
20445;SDS011;10382;49.140;9.234;2023-08-20T09:54:38;11.00;;;7.33;;
20445;SDS011;10382;49.140;9.234;2023-08-20T09:57:14;5.37;;;4.83;;
20445;SDS011;10382;49.140;9.234;2023-08-20T09:59:51;8.70;;;6.43;;
20445;SDS011;10382;49.140;9.234;2023-08-20T10:02:19;6.27;;;5.67;;
20445;SDS011;10382;49.140;9.234;2023-08-20T10:04:47;8.33;;;5.90;;
20445;SDS011;10382;49.140;9.234;2023-08-20T10:07:15;9.90;;;5.53;;
20445;SDS011;10382;49.140;9.234;2023-08-20T10:09:42;10.80;;;6.77;;
20445;SDS011;10382;49.140;9.234;2023-08-20T10:12:11;12.37;;;6.03;;
20445;SDS011;10382;49.140;9.234;2023-08-20T10:14:39;11.13;;;6.40;;
20445;SDS011;10382;49.140;9.234;2023-08-20T10:17:07;8.07;;;6.50;;
20445;SDS011;10382;49.140;9.234;2023-08-20T10:19:36;6.77;;;5.70;;
20445;SDS011;10382;49.140;9.234;2023-08-20T10:22:04;10.63;;;6.80;;
20445;SDS011;10382;49.140;9.234;2023-08-20T10:24:39;7.07;;;6.37;;
20445;SDS011;10382;49.140;9.234;2023-08-20T10:27:22;11.23;;;5.37;;
20445;SDS011;10382;49.140;9.234;2023-08-20T10:29:51;13.03;;;6.83;;
20445;SDS011;10382;49.140;9.234;2023-08-20T10:32:19;8.10;;;5.57;;
20445;SDS011;10382;49.140;9.234;2023-08-20T10:34:51;5.83;;;5.13;;
20445;SDS011;10382;49.140;9.234;2023-08-20T10:37:27;10.60;;;5.90;;
20445;SDS011;10382;49.140;9.234;2023-08-20T10:39:54;7.93;;;5.97;;
20445;SDS011;10382;49.140;9.234;2023-08-20T10:42:25;8.67;;;4.90;;
20445;SDS011;10382;49.140;9.234;2023-08-20T10:44:59;9.10;;;6.10;;
20445;SDS011;10382;49.140;9.234;2023-08-20T10:47:35;7.20;;;5.47;;
20445;SDS011;10382;49.140;9.234;2023-08-20T10:50:05;6.87;;;6.17;;
20445;SDS011;10382;49.140;9.234;2023-08-20T10:52:38;6.93;;;6.13;;
20445;SDS011;10382;49.140;9.234;2023-08-20T10:55:06;7.77;;;6.00;;
20445;SDS011;10382;49.140;9.234;2023-08-20T10:57:34;9.17;;;5.87;;
20445;SDS011;10382;49.140;9.234;2023-08-20T11:00:02;17.37;;;6.10;;
20445;SDS011;10382;49.140;9.234;2023-08-20T11:02:36;11.57;;;6.30;;
20445;SDS011;10382;49.140;9.234;2023-08-20T11:05:09;11.40;;;5.97;;
20445;SDS011;10382;49.140;9.234;2023-08-20T11:07:43;13.20;;;6.77;;
20445;SDS011;10382;49.140;9.234;2023-08-20T11:10:12;7.23;;;5.23;;
20445;SDS011;10382;49.140;9.234;2023-08-20T11:12:40;6.60;;;5.70;;
20445;SDS011;10382;49.140;9.234;2023-08-20T11:15:07;7.40;;;5.70;;
20445;SDS011;10382;49.140;9.234;2023-08-20T11:17:39;5.23;;;4.83;;
20445;SDS011;10382;49.140;9.234;2023-08-20T11:20:09;9.23;;;5.50;;
20445;SDS011;10382;49.140;9.234;2023-08-20T11:22:38;7.80;;;6.00;;
20445;SDS011;10382;49.140;9.234;2023-08-20T11:25:05;7.07;;;6.37;;
20445;SDS011;10382;49.140;9.234;2023-08-20T11:27:36;6.53;;;5.93;;
20445;SDS011;10382;49.140;9.234;2023-08-20T11:30:06;8.93;;;5.90;;
20445;SDS011;10382;49.140;9.234;2023-08-20T11:32:34;6.60;;;5.37;;
20445;SDS011;10382;49.140;9.234;2023-08-20T11:35:02;6.43;;;5.70;;
20445;SDS011;10382;49.140;9.234;2023-08-20T11:37:31;6.60;;;5.20;;
20445;SDS011;10382;49.140;9.234;2023-08-20T11:39:58;6.90;;;6.20;;
20445;SDS011;10382;49.140;9.234;2023-08-20T11:42:25;6.23;;;4.90;;
20445;SDS011;10382;49.140;9.234;2023-08-20T11:44:54;17.93;;;5.90;;
20445;SDS011;10382;49.140;9.234;2023-08-20T11:47:22;6.00;;;5.43;;
20445;SDS011;10382;49.140;9.234;2023-08-20T11:49:56;5.30;;;4.90;;
20445;SDS011;10382;49.140;9.234;2023-08-20T11:52:31;5.23;;;4.73;;
20445;SDS011;10382;49.140;9.234;2023-08-20T11:54:58;7.20;;;5.47;;
20445;SDS011;10382;49.140;9.234;2023-08-20T11:57:26;6.53;;;4.50;;
20445;SDS011;10382;49.140;9.234;2023-08-20T11:59:55;4.33;;;3.93;;
20445;SDS011;10382;49.140;9.234;2023-08-20T12:02:25;7.63;;;4.60;;
20445;SDS011;10382;49.140;9.234;2023-08-20T12:04:54;9.07;;;6.23;;
20445;SDS011;10382;49.140;9.234;2023-08-20T12:07:24;6.67;;;4.80;;
20445;SDS011;10382;49.140;9.234;2023-08-20T12:09:53;6.80;;;5.87;;
20445;SDS011;10382;49.140;9.234;2023-08-20T12:12:19;6.70;;;5.20;;
20445;SDS011;10382;49.140;9.234;2023-08-20T12:14:47;7.70;;;4.80;;
20445;SDS011;10382;49.140;9.234;2023-08-20T12:17:16;5.37;;;4.33;;
20445;SDS011;10382;49.140;9.234;2023-08-20T12:19:43;7.23;;;5.33;;
20445;SDS011;10382;49.140;9.234;2023-08-20T12:22:10;9.13;;;4.90;;
20445;SDS011;10382;49.140;9.234;2023-08-20T12:24:37;7.20;;;4.30;;
20445;SDS011;10382;49.140;9.234;2023-08-20T12:27:05;9.97;;;5.50;;
20445;SDS011;10382;49.140;9.234;2023-08-20T12:29:32;6.13;;;4.87;;
20445;SDS011;10382;49.140;9.234;2023-08-20T12:31:59;10.03;;;5.77;;
20445;SDS011;10382;49.140;9.234;2023-08-20T12:34:29;5.47;;;4.50;;
20445;SDS011;10382;49.140;9.234;2023-08-20T12:36:56;9.00;;;5.87;;
20445;SDS011;10382;49.140;9.234;2023-08-20T12:39:23;4.30;;;4.00;;
20445;SDS011;10382;49.140;9.234;2023-08-20T12:41:50;12.70;;;5.60;;
20445;SDS011;10382;49.140;9.234;2023-08-20T12:44:18;6.33;;;4.43;;
20445;SDS011;10382;49.140;9.234;2023-08-20T12:46:44;8.00;;;4.90;;
20445;SDS011;10382;49.140;9.234;2023-08-20T12:49:11;4.83;;;4.43;;
20445;SDS011;10382;49.140;9.234;2023-08-20T12:51:39;3.87;;;3.50;;
20445;SDS011;10382;49.140;9.234;2023-08-20T12:54:06;10.60;;;5.63;;
20445;SDS011;10382;49.140;9.234;2023-08-20T12:56:33;5.43;;;4.27;;
20445;SDS011;10382;49.140;9.234;2023-08-20T12:59:00;10.20;;;4.73;;
20445;SDS011;10382;49.140;9.234;2023-08-20T13:01:28;6.40;;;5.60;;
20445;SDS011;10382;49.140;9.234;2023-08-20T13:03:55;11.73;;;4.83;;
20445;SDS011;10382;49.140;9.234;2023-08-20T13:06:23;6.77;;;3.90;;
20445;SDS011;10382;49.140;9.234;2023-08-20T13:08:51;6.63;;;4.50;;
20445;SDS011;10382;49.140;9.234;2023-08-20T13:11:18;4.40;;;4.00;;
20445;SDS011;10382;49.140;9.234;2023-08-20T13:13:48;5.00;;;3.80;;
20445;SDS011;10382;49.140;9.234;2023-08-20T13:16:15;8.63;;;4.63;;
20445;SDS011;10382;49.140;9.234;2023-08-20T13:18:46;6.40;;;4.20;;
20445;SDS011;10382;49.140;9.234;2023-08-20T13:21:13;7.43;;;4.63;;
20445;SDS011;10382;49.140;9.234;2023-08-20T13:23:40;6.80;;;4.80;;
20445;SDS011;10382;49.140;9.234;2023-08-20T13:26:07;8.50;;;6.07;;
20445;SDS011;10382;49.140;9.234;2023-08-20T13:28:34;6.50;;;3.77;;
20445;SDS011;10382;49.140;9.234;2023-08-20T13:31:01;8.50;;;6.00;;
20445;SDS011;10382;49.140;9.234;2023-08-20T13:33:28;8.20;;;4.60;;
20445;SDS011;10382;49.140;9.234;2023-08-20T13:35:56;9.53;;;4.37;;
20445;SDS011;10382;49.140;9.234;2023-08-20T13:38:23;12.57;;;4.83;;
20445;SDS011;10382;49.140;9.234;2023-08-20T13:40:51;9.53;;;4.40;;
20445;SDS011;10382;49.140;9.234;2023-08-20T13:43:18;10.60;;;5.30;;
20445;SDS011;10382;49.140;9.234;2023-08-20T13:45:45;7.57;;;4.57;;
20445;SDS011;10382;49.140;9.234;2023-08-20T13:48:12;7.10;;;4.47;;
20445;SDS011;10382;49.140;9.234;2023-08-20T13:50:39;7.57;;;4.70;;
20445;SDS011;10382;49.140;9.234;2023-08-20T13:53:07;6.77;;;4.03;;
20445;SDS011;10382;49.140;9.234;2023-08-20T13:55:35;12.53;;;5.47;;
20445;SDS011;10382;49.140;9.234;2023-08-20T13:58:02;7.10;;;4.10;;
20445;SDS011;10382;49.140;9.234;2023-08-20T14:00:29;4.63;;;4.20;;
20445;SDS011;10382;49.140;9.234;2023-08-20T14:02:57;8.00;;;5.90;;
20445;SDS011;10382;49.140;9.234;2023-08-20T14:05:23;8.63;;;4.67;;
20445;SDS011;10382;49.140;9.234;2023-08-20T14:07:50;17.33;;;4.63;;
20445;SDS011;10382;49.140;9.234;2023-08-20T14:10:18;10.20;;;5.23;;
20445;SDS011;10382;49.140;9.234;2023-08-20T14:12:45;11.23;;;5.27;;
20445;SDS011;10382;49.140;9.234;2023-08-20T14:15:12;5.63;;;4.90;;
20445;SDS011;10382;49.140;9.234;2023-08-20T14:17:39;9.50;;;4.33;;
20445;SDS011;10382;49.140;9.234;2023-08-20T14:20:07;6.33;;;4.87;;
20445;SDS011;10382;49.140;9.234;2023-08-20T14:22:36;8.30;;;4.47;;
20445;SDS011;10382;49.140;9.234;2023-08-20T14:25:03;12.10;;;5.10;;
20445;SDS011;10382;49.140;9.234;2023-08-20T14:27:31;4.07;;;3.73;;
20445;SDS011;10382;49.140;9.234;2023-08-20T14:29:58;8.50;;;5.67;;
20445;SDS011;10382;49.140;9.234;2023-08-20T14:32:25;5.20;;;4.13;;
20445;SDS011;10382;49.140;9.234;2023-08-20T14:34:52;16.33;;;5.43;;
20445;SDS011;10382;49.140;9.234;2023-08-20T14:37:19;7.23;;;4.83;;